SiktMolnbas
>≥ 10km≥ 10km ≥ 2000ft≥ 2000ft
< 10km< 10km < 2000ft< 2000ft
< 8km< 8km < 1500ft< 1500ft
< 5km< 5km < 1000ft< 1000ft
< 3km< 3km < 500ft< 500ft

Nytt 18 jan 2017:

Nytt 17 jan 2017:

ESNQ (16:20 UTC)

Kiruna flygplats

METAR

ESNQ 171620Z 26010KT CAVOK 14/03 Q1011=

TAF

ESNQ 171430Z 1715/1717 25013KT CAVOK=

ESNG (16:20 UTC)

Gällivare (Kavaheden), Lapland Airport

METAR

ESNG 171620Z 25010KT 230V290 9999 SCT048 16/07 Q1011=

TAF

RA

ESNG 171430Z 1715/1719 22012KT 9999 FEW030 BKN050 TEMPO 1717/1719 RA=

ESPA (16:20 UTC)

Luleå Airport (Kallax)

METAR

ESPA 171620Z 16005KT CAVOK 13/09 Q1013=

TAF

ESPA 171430Z 1715/1722 17012KT CAVOK BECMG 1715/1717 17006KT=

ESNL (16:20 UTC)

Lycksele flygplats

METAR

ESNL 171620Z AUTO 17007KT 140V200 9999 SCT055/// 22/11 Q1012=

TAF

Ingen TAF hittades.

ESNU (16:20 UTC)

Umeå City Airport

METAR

ESNU 171620Z 18009KT CAVOK 15/10 Q1014=

TAF

ESNU 171430Z 1715/1724 17010KT CAVOK=

ESNO (16:20 UTC)

Örnsköldsvik flygplats

METAR

ESNO 171620Z 18010KT 150V210 CAVOK 19/09 Q1013=

TAF

ESNO 171430Z 1715/1719 18009KT CAVOK=

ESNK (16:20 UTC)

Kramfors-Sollefteå flygplats

METAR

ESNK 171620Z AUTO 16011KT 9999 BKN190/// 22/09 Q1012=

TAF

ESNK 171130Z 1712/1716 17012KT CAVOK=

ESNN (16:20 UTC)

Sundsvall-Härnösands flygplats (Midlanda)

METAR

ESNN 171620Z 13013KT CAVOK 19/08 Q1012=

TAF

ESNN 171530Z 1716/1722 14012KT CAVOK BECMG 1719/1721 22010KT=

ESNZ (16:20 UTC)

Åre Östersund Airport (Frösön)

METAR

ESNZ 171620Z 19005KT 150V220 CAVOK 23/08 Q1011=

TAF

ESNZ 171430Z 1715/1719 18010KT CAVOK=

ESNS (16:20 UTC)

Skellefteå flygplats

METAR

ESNS 171620Z 18009KT 150V210 CAVOK 18/11 Q1013=

TAF

ESNS 171430Z 1715/1718 17008KT CAVOK=

ESGT (16:20 UTC)

Trollhättan-Vänersborgs flygplats (Malöga flygplats)

METAR

ESGT 171620Z AUTO 19011KT 9999 NCD 28/14 Q1014=

TAF

ESGT 171130Z 1712/1714 17009KT CAVOK=

ESGG (16:20 UTC)

Göteborg-Landvetter flygplats

METAR

ESGG 171620Z 19013KT CAVOK 27/14 Q1015=

TAF

ESGG 171130Z 1712/1812 16010KT CAVOK BECMG 1805/1807 24007KT=

ESMT (16:20 UTC)

Halmstads flygplats

METAR

ESMT 171620Z 15009KT 110V200 CAVOK 27/16 Q1015=

TAF

ESMT 171401Z 1715/1719 16010KT CAVOK=

ESTA (16:20 UTC)

Ängelholm-Helsingborg flygplats

METAR

ESTA 171620Z 12014KT CAVOK 27/16 Q1015=

TAF

ESTA 171401Z 1715/1719 14010KT CAVOK=

ESTL (16:20 UTC)

Ljungbyheds flygplats

METAR

ESTL 171620Z AUTO 11011KT 9999 NCD 27/15 Q1016=

TAF

ESTL 171109Z 1712/1715 14008KT CAVOK=

ESMS (16:20 UTC)

Malmö Airport

METAR

ESMS 171620Z 12013KT CAVOK 26/15 Q1016=

TAF

ESMS 171111Z 1712/1812 12010KT CAVOK=

ESMK (16:20 UTC)

Kristianstad Airport

METAR

ESMK 171620Z 13010KT CAVOK 21/14 Q1017=

TAF

ESMK 171401Z 1715/1719 11010KT CAVOK=

ESDF (16:20 UTC)

Ronneby flygplats

METAR

ESDF 171620Z 13010KT 100V170 CAVOK 23/12 Q1018=

TAF

ESDF COR 171555Z 1715/1719 14008KT CAVOK=

ESMQ (16:20 UTC)

Kalmar Airport

METAR

ESMQ 171620Z 15009KT CAVOK 22/12 Q1019=

TAF

ESMQ 171430Z 1715/1718 17010KT CAVOK=

ESMX (16:20 UTC)

Växjö, Smaland Airport

METAR

ESMX 171620Z 17010KT 140V200 CAVOK 25/10 Q1018=

TAF

ESMX 171430Z 1715/1719 17007KT CAVOK=

ESGJ (16:20 UTC)

Jönköping Airport

METAR

ESGJ 171620Z AUTO 16010KT 9999 NCD 27/07 Q1016=

TAF

ESGJ 171430Z 1715/1724 17008KT CAVOK=

ESSA (16:20 UTC)

Stockholm-Arlanda flygplats

METAR

ESSA 171620Z 17015KT CAVOK 21/09 Q1017 NOSIG=

TAF

ESSA 171130Z 1712/1812 19012KT CAVOK BECMG 1809/1811 20017G27KT=

ESSB (16:20 UTC)

Stockholm-Bromma flygplats

METAR

ESSB 171620Z 17012KT CAVOK 21/10 Q1018=

TAF

ESSB 171430Z 1715/1721 17013KT CAVOK=

ESKN (16:20 UTC)

Stockholm-Skavsta flygplats

METAR

ESKN 171620Z 14011KT CAVOK 20/13 Q1018=

TAF

ESKN 171130Z 1712/1812 15013KT CAVOK BECMG 1809/1811 20016G26KT=

ESSP (16:20 UTC)

Norrköping flygplats

METAR

ESSP 171620Z AUTO 14012KT 9999 NCD 25/14 Q1016=

TAF

Ingen TAF hittades.

ESSL (16:20 UTC)

Linköping - SAAB Flygplats

METAR

ESSL 171620Z 13011KT CAVOK 26/14 Q1016=

TAF

ESSL 171130Z 1712/1716 19009KT CAVOK=

ESSV (16:20 UTC)

Visby flygplats

METAR

ESSV 171620Z 16011KT 140V200 CAVOK 22/09 Q1020=

TAF

ESSV 171430Z 1715/1720 17010KT CAVOK=

ESOW (16:20 UTC)

Stockholm-Västerås flygplats

METAR

ESOW 171620Z AUTO 16012KT 6000 NCD 24/12 Q1016=

TAF

ESOW 171130Z 1712/1715 18008KT CAVOK=

ESOE (16:20 UTC)

Örebro flygplats

METAR

ESOE 171620Z 18008KT CAVOK 26/08 Q1016=

TAF

ESOE 171430Z 1715/1721 19008KT CAVOK=

ESOK (16:20 UTC)

Karlstad Airport

METAR

ESOK 171620Z 13005KT 080V160 CAVOK 24/13 Q1015=

TAF

ESOK 171430Z 1715/1717 15007KT CAVOK=

ESSD (16:20 UTC)

Borlänge, Dala Airport

METAR

ESSD 171620Z AUTO 23010KT 9999 NCD 25/10 Q1015=

TAF

ESSD 171130Z 1712/1716 20012KT CAVOK=

ESGR (16:20 UTC)

Skövde flygplats

METAR

ESGR 171620Z AUTO 14010KT 9999 NCD 27/11 Q1015=

TAF

Ingen TAF hittades.

ESIB (16:20 UTC)

Såtenäs

METAR

ESIB 171620Z AUTO 16007KT 9999 NCD 27/14 Q1014=

TAF

ESIB 171130Z 1712/1715 16007G15KT CAVOK RMK MIL=

ESNV (16:20 UTC)

Vilhelmina flygplats

METAR

ESNV 171620Z AUTO 20006KT 160V240 9999 OVC140/// 20/09 Q1012=

TAF

Ingen TAF hittades.

ESST (16:20 UTC)

Torsby flygplats (Fryklanda)

METAR

ESST 171620Z 14010KT CAVOK 22/12 Q1015=

TAF

Ingen TAF hittades.

ESUT (16:20 UTC)

Hemavans flygplats

METAR

DZ

ESUT 171620Z AUTO 22003KT 8000 DZ SCT020/// OVC027/// 11/10 Q1013=

TAF

Ingen TAF hittades.

ESNX (16:20 UTC)

Arvidsjaur flygplats

METAR

ESNX 171620Z 20003KT 160V230 CAVOK 19/09 Q1012=

TAF

ESNX 171530Z 1716/1718 22008KT 9999 SCT030 BKN050=

ESIA (16:20 UTC)

Karlsborg

METAR

ESIA 171620Z AUTO 09004KT 060V120 9999 NCD 23/11 Q1016=

TAF

ESIA 170830Z 1709/1714 19006KT CAVOK=

ESUP (16:20 UTC)

Pajala

METAR

ESUP 171620Z AUTO 19010KT 9999 SCT061/// BKN082/// 15/08 Q1012=

TAF

Ingen TAF hittades.

ESPE (16:20 UTC)

Vidsel

METAR

ESPE 171620Z AUTO 36003KT 270V040 9999 SCT068/// 19/10 Q1012=

TAF

Ingen TAF hittades.

ESCM (16:20 UTC)

Uppsala

METAR

ESCM 171620Z AUTO 17010KT 9999 NCD 22/12 Q1017=

TAF

ESCM 171125Z 1712/1714 21010G22KT CAVOK=

ESKM (16:20 UTC)

Mora/Siljan

METAR

ESKM 171620Z AUTO 20008KT 160V240 9999 NCD 25/08 Q1014=

TAF

Ingen TAF hittades.

EKRN (16:20 UTC)

Bornholm Airport

METAR

EKRN 171620Z AUTO 10012KT 9999 NCD 25/13 Q1016=

TAF

EKRN 171401Z 1715/1722 12012KT CAVOK=

EFIV (16:20 UTC)

Ivalo Airport

METAR

SHRA

EFIV 171620Z 32007KT 9999 SHRA OVC045 12/10 Q1010=

TAF

Ingen TAF hittades.

EFKT (16:20 UTC)

Kittilä Airport

METAR

EFKT 171620Z 22014KT 9999 FEW035 15/07 Q1011=

TAF

EFKT 171425Z 1715/1718 21013KT 9999 SCT040=

EFRO (16:20 UTC)

Rovaniemi Airport

METAR

EFRO 171620Z AUTO 20009KT 9999 FEW036 13/07 Q1014=

TAF

DZBR

EFRO 171425Z 1715/1815 21010KT CAVOK TEMPO 1801/1806 3000 BR BKN002 BECMG 1808/1810 BKN005 PROB40 1810/1815 1200 DZRA BKN001=

EFKE (16:20 UTC)

Kemi-Tornio Airport

METAR

EFKE 171620Z 21010KT CAVOK 17/09 Q1014=

TAF

EFKE 171425Z 1715/1724 21010KT CAVOK=

EFKS (16:20 UTC)

Kuusamo Airport

METAR

SHRA

EFKS 171620Z AUTO 23007KT 9999 -SHRA NSC 16/06 Q1015=

TAF

EFKS 171425Z 1715/1721 22012KT CAVOK=

EFOU (16:20 UTC)

Oulu Airport

METAR

EFOU 171620Z AUTO 27010KT CAVOK 19/08 Q1015=

TAF

EFOU 171425Z 1715/1815 23005KT CAVOK TEMPO 1806/1809 BKN008=

EFKI (16:20 UTC)

Kajaani Airport

METAR

EFKI 171620Z AUTO 18006KT 140V200 CAVOK 21/11 Q1016=

TAF

EFKI 171430Z 1715/1721 21009KT CAVOK=

EFKK (16:20 UTC)

Kokkola-Pietarsaari/Kruunupyy Airport

METAR

EFKK 171620Z 23005KT 200V280 CAVOK 21/07 Q1015=

TAF

EFKK 171425Z 1715/1723 20014KT CAVOK=

EFVA (16:20 UTC)

Vaasa Airport

METAR

EFVA 171620Z AUTO 20016KT CAVOK 21/11 Q1015=

TAF

EFVA 171423Z 1715/1815 22013KT CAVOK PROB40 TEMPO 1715/1717 22015G25KT=

EFKU (16:20 UTC)

Kuopio Airport

METAR

EFKU 171620Z AUTO 21007KT 150V250 CAVOK 22/10 Q1018=

TAF

EFKU 171430Z 1715/1815 22008KT CAVOK=

EFJY (16:20 UTC)

Jyväskylä Airport

METAR

EFJY 171620Z AUTO 22011KT 170V240 CAVOK 23/09 Q1018=

TAF

EFJY 171423Z 1715/1815 23009KT CAVOK=

EFTP (16:20 UTC)

Tampere-Pirkkala Airport

METAR

EFTP 171620Z 22012KT 170V240 CAVOK 22/06 Q1019=

TAF

EFTP 171423Z 1715/1815 19012KT CAVOK=

EFPO (16:20 UTC)

Pori Airport

METAR

EFPO 171620Z AUTO 17013KT CAVOK 22/07 Q1018=

TAF

EFPO 171423Z 1715/1718 19013KT CAVOK PROB30 TEMPO 1715/1717 20015G25KT=

EFTU (16:20 UTC)

Turku Airport

METAR

EFTU 171620Z AUTO 22008KT 170V250 CAVOK 19/08 Q1020=

TAF

EFTU 171423Z 1715/1815 23013KT CAVOK=

EFHK (16:20 UTC)

Helsinki-Vantaa Airport

METAR

EFHK 171620Z 21012KT CAVOK 22/08 Q1022 NOSIG=

TAF

EFHK 171423Z 1715/1815 22011KT CAVOK=

EFMA (16:20 UTC)

Mariehamn Airport

METAR

EFMA 171620Z AUTO 18015KT CAVOK 15/12 Q1019=

TAF

EFMA 171423Z 1715/1724 18016KT CAVOK=

EKSB (16:20 UTC)

Sønderborg Airport

METAR

EKSB 171620Z 12011KT CAVOK 26/19 Q1011=

TAF

EKSB 171153Z 1712/1718 13012KT CAVOK=

EKSP (16:20 UTC)

Vojens Airport

METAR

EKSP 171620Z 12012KT CAVOK 28/19 Q1011=

TAF

SHRATCU

EKSP 171406Z 1715/1815 12012KT 9999 SCT060 TEMPO 1715/1716 13014G24KT BECMG 1716/1719 VRB05KT BECMG 1808/1810 34010KT TEMPO 1808/1815 5000 SHRA BKN020TCU=

EKEB (15:50 UTC)

Esbjerg Airport

METAR

EKEB 171550Z AUTO 15010KT 9999 NCD 29/19 Q1010=

TAF

EKEB 171401Z 1715/1721 14010KT 9999 FEW045 BECMG 1718/1721 25005KT=

EKYT (16:20 UTC)

Aalborg Airport

METAR

EKYT 171620Z AUTO 15016KT 9999 NCD 28/18 Q1011=

TAF

SHRAFGCB

EKYT 171408Z 1715/1815 14012KT 9999 FEW200 TEMPO 1715/1717 16012G22KT BECMG 1720/1723 VRB03KT PROB40 1802/1806 0800 FG BKN003 TEMPO 1812/1815 6000 SHRA BKN050CB=

EKKA (16:20 UTC)

Karup Airport

METAR

EKKA 171620Z AUTO 15013G24KT 9999 NCD 29/17 Q1011=

TAF

TSSHRACB

EKKA 171406Z 1715/1815 14006KT 9999 SCT008 TEMPO 1715/1717 16012G22KT BECMG 1719/1722 VRB03KT PROB40 1801/1803 1800 BCFG PROB40 1803/1806 1200 BCFG BKN004 TEMPO 1810/1815 5000 SHRA BKN050CB PROB40 TEMPO 1810/1815 TSGS=

EKBI (16:20 UTC)

Billund Airport

METAR

EKBI 171620Z AUTO 14013KT 090V170 9999 FEW140/// 28/18 Q1012=

TAF

EKBI 171110Z 1712/1812 13010KT CAVOK TEMPO 1712/1716 14015G25KT BECMG 1720/1723 26005KT PROB40 1803/1806 BKN004 TEMPO 1806/1808 BKN010=

EKVD (16:20 UTC)

Kolding Airport

METAR

EKVD 171620Z AUTO 13012KT 100V160 //// ///////// 27/18 Q1011=

TAF

EKVD 171153Z 1712/1716 14012KT CAVOK TEMPO 1712/1716 14015G28KT=

EKOD (15:50 UTC)

Odense Airport

METAR

EKOD 171550Z 13011KT CAVOK 27/20 Q1013=

TAF

EKOD 171153Z 1712/1716 14012KT CAVOK=

EKCH (16:20 UTC)

Copenhagen Airport, Kastrup

METAR

EKCH 171620Z AUTO 13013KT 9999 NCD 24/15 Q1015 NOSIG=

TAF

EKCH 171110Z 1712/1812 15012KT CAVOK=

EKRK (16:20 UTC)

Copenhagen Airport, Roskilde

METAR

EKRK 171620Z AUTO 14012KT 9999 NCD 22/15 Q1015=

TAF

EKRK 171401Z 1715/1724 12012KT CAVOK=

ENRY (16:20 UTC)

Moss flygplats, Rygge

METAR

ENRY 171620Z 21007KT CAVOK 23/11 Q1014=

TAF

TSCB

ENRY 171100Z 1712/1812 18008KT 9999 FEW015 TEMPO 1720/1802 TSRA BKN012 SCT020CB PROB40 1802/1808 BKN008=

ENGM (16:20 UTC)

Oslo flygplats, Gardermoen

METAR

SHRA

ENGM 171620Z 19009KT 9999 -SHRA BKN048 21/11 Q1014 NOSIG=

TAF

TSSHRABRCB

ENGM 171100Z 1712/1812 19012KT 9999 FEW040 SCT070 TEMPO 1712/1718 20015G25KT TEMPO 1718/1802 SHRA SCT025CB BKN030 BECMG 1719/1721 VRB07KT PROB30 TEMPO 1721/1802 4000 TSRA BECMG 1802/1804 4000 BR BKN004 BECMG 1807/1810 19010KT SCT020=

ENTO (16:20 UTC)

Sandefjord flygplats, Torp

METAR

TCU

ENTO 171620Z 17011KT 9999 FEW050TCU SCT055 20/12 Q1013 NOSIG=

TAF

TSCB

ENTO 171100Z 1712/1812 18008KT 9999 FEW040 SCT070 TEMPO 1720/1801 TSRA BKN012 SCT020CB PROB30 1801/1808 BKN008=

ENCN (16:20 UTC)

Kristiansand flygplats, Kjevik

METAR

ENCN 171620Z 05006KT 9999 BKN043 20/14 Q1011=

TAF

TSCB

ENCN 171400Z 1715/1720 06008KT 9999 SCT040 BKN070 PROB40 TEMPO 1717/1720 4000 TSRA BKN012 SCT020CB=

ENZV (16:20 UTC)

Stavanger-Sola flygplats

METAR

RA

ENZV 171620Z 34005KT 5000 -RA FEW025 OVC060 14/13 Q1011 TEMPO 3000 SHRA BKN012=

TAF

TSSHRABRCB

ENZV 171100Z 1712/1812 20008KT 9999 BKN050 BECMG 1715/1717 36010KT SCT008 BKN014 TEMPO 1715/1724 3000 SHRA BR BKN007 SCT020CB PROB30 TEMPO 1717/1722 2000 TSRA SCT004 BKN012CB BECMG 1803/1806 35020KT FEW012 BKN025=

ENHD (16:20 UTC)

Haugesund flygplats, Karmøy

METAR

RA

ENHD 171620Z 03004KT 6000 -RA FEW003 BKN011 14/13 Q1012=

TAF

SHRABRCB

ENHD 171400Z 1715/1720 21005KT 9999 -RA SCT020 BKN035 BECMG 1715/1717 34010KT TEMPO 1715/1720 4000 SHRA BR BKN008 SCT020CB=

ENBR (16:20 UTC)

Bergen flygplats, Flesland

METAR

RA

ENBR 171620Z 06003KT 9999 -RA FEW008 SCT015 BKN025 14/13 Q1012 TEMPO 3000 SHRA BKN008 RMK WIND 1200FT 18006KT=

TAF

SHRABRCB

ENBR 171100Z 1712/1812 18008KT 8000 -SHRA SCT006 BKN015 TEMPO 1712/1801 2000 SHRA BR BKN004 SCT015CB BECMG 1800/1802 35012KT=

ENBL (16:20 UTC)

Førde flygplats, Bringeland

METAR

RA

ENBL 171620Z 26005KT 9000 -RA FEW003 SCT018 BKN030 12/11 Q1012=

TAF

Ingen TAF hittades.

ENOV (16:20 UTC)

Ørsta-Volda flygplats, Hovden

METAR

SHRA

ENOV 171620Z 08004KT 030V150 9999 SHRA FEW005 SCT035 BKN040 13/11 Q1012 RMK WIND 2175FT 20009KT=

TAF

Ingen TAF hittades.

ENML (16:20 UTC)

Molde flygplats, Årø

METAR

RA

ENML 171620Z 01006KT 9999 -RA FEW006 SCT017 BKN024 13/11 Q1012=

TAF

SHRABRCB

ENML 171400Z 1715/1720 32008KT 9999 -RA FEW004 BKN020 TEMPO 1715/1720 3000 SHRA BR BKN007 SCT015CB=

ENKB (16:20 UTC)

Kristiansund flygplats, Kvernberget

METAR

DZ

ENKB 171620Z 24003KT 8000 -DZ BKN004 11/10 Q1013 RMK WIND 745FT 29005KT=

TAF

SHRABRCB

ENKB 171400Z 1715/1720 28008KT 9999 -RA SCT004 BKN007 TEMPO 1715/1720 3000 SHRA BR BKN004 SCT015CB=

ENRO (16:20 UTC)

Røros flygplats

METAR

ENRO 171620Z 15011KT CAVOK 18/06 Q1012=

TAF

ENRO 171400Z 1715/1720 18010KT 9999 FEW040 BKN080=

ENVA (16:20 UTC)

Trondheim flygplats, Værnes

METAR

ENVA 171620Z 25014KT CAVOK 17/13 Q1011 NOSIG RMK WIND 670FT 28014KT=

TAF

SHRABRCB

ENVA 171100Z 1712/1812 24008KT 9999 FEW030 BKN050 PROB40 TEMPO 1720/1810 27018KT 3000 SHRA BR SCT006 BKN020CB=

ENOL (16:20 UTC)

Ørland flygplats

METAR

ENOL 171620Z 31007KT 9999 SCT009 BKN020 13/11 Q1012 TEMPO BKN011=

TAF

RABR

ENOL AMD 171358Z 1713/1812 32008KT 9999 -RA FEW008 BKN040 TEMPO 1713/1718 BKN010 TEMPO 1718/1801 RA BKN007 BECMG 1722/1801 BKN012 TEMPO 1801/1806 3000 DZRA BR BKN005 BECMG 1806/1809 25015KT BKN020=

ENRM (16:20 UTC)

Rørvik flygplats, Ryum

METAR

SHRA

ENRM 171620Z 36003KT 9999 VCSH FEW007 BKN027 13/13 Q1012=

TAF

Ingen TAF hittades.

ENBN (16:20 UTC)

Brønnøysund flygplats, Brønnøy

METAR

RA

ENBN 171620Z 21003KT 190V250 6000 -RA FEW004 BKN007 13/12 Q1013=

TAF

RA

ENBN AMD 171546Z 1715/1724 21005KT 9999 -RA FEW008 BKN030 TEMPO 1715/1721 4000 RA BKN008=

ENRA (16:20 UTC)

Mo i Rana flygplats, Røssvoll

METAR

RA

ENRA 171620Z 32005KT 9999 RA FEW007 SCT018 BKN065 11/10 Q1013=

TAF

RA

ENRA AMD 171549Z 1715/1721 12003KT 9999 -RA SCT015 BKN035 TEMPO 1715/1721 RA=

ENBO (16:20 UTC)

Bodö flygplats

METAR

ENBO 171620Z 30004KT 9999 FEW015 SCT070 BKN200 12/09 Q1012 BECMG 10010KT=

TAF

RABR

ENBO 171100Z 1712/1812 24012KT 9999 FEW012 SCT020 BKN070 BECMG 1715/1717 10008KT PROB40 TEMPO 1721/1812 4000 RADZ BR SCT005 BKN008 BECMG 1807/1810 24012KT=

ENSH (15:50 UTC)

Svolvær flygplats, Helle

METAR

ENSH 171550Z 15006KT 9999 SCT006 BKNO10 11/09 Q1012 RMK WIND 150FT 17010KT=

TAF

ENSH 171400Z 1715/1720 20008KT 9999 FEW010 BKN025 TEMPO 1715/1720 BKN012=

ENAN (16:20 UTC)

Andøya flygplats

METAR

RA

ENAN 171620Z 25016G30KT 9999 -RA BKN013 11/09 Q1010=

TAF

SHRA

ENAN 171100Z 1712/1812 20010KT 9999 -SHRA FEW005 BKN025 PROB40 TEMPO 1712/1812 SCT005 BKN008 PROB40 TEMPO 1712/1718 23015G25KT BECMG 1801/1803 VRB03KT=

ENEV (16:20 UTC)

Harstad-Narvik flygplats

METAR

SHRA

ENEV 171620Z 22007KT 170V250 9999 VCSH FEW029 BKN044 12/09 Q1012 RMK WIND 1400FT 23017KT=

TAF

ENEV 171400Z 1715/1719 24008KT 9999 FEW015 BKN030 TEMPO 1715/1719 24015G25KT BKN014=

ENDU (15:50 UTC)

Bardufoss flygplats

METAR

SHRA

ENDU 171550Z 23008KT 180V270 9999 VCSH FEW040 BKN050 13/07 Q1010 NOSIG RMK WIND 1100FT 18017KT WIND 2200FT 22013KT=

TAF

ENDU 171100Z 1712/1812 23008KT 9999 FEW025 BKN035 TEMPO 1712/1716 24015G25KT=

ENTC (16:20 UTC)

Tromsø flygplats

METAR

ENTC 171620Z VRB02KT 9999 FEW032 BKN045 09/06 Q1010 NOSIG RMK WIND 2600FT 18018KT=

TAF

RA

ENTC 171100Z 1712/1812 VRB05KT 9999 FEW020 BKN040 TEMPO 1712/1715 RA BKN014 TEMPO 1722/1806 RA BKN014=

ENAT (16:20 UTC)

Alta flygplats

METAR

ENAT 171620Z 35005KT 260V040 9999 BKN047 12/03 Q1010 RMK WIND 700FT 33009KT=

TAF

ENAT 171400Z 1715/1721 29008KT CAVOK=

ENNA (16:20 UTC)

Lakselv flygplats

METAR

ENNA 171620Z 33010KT CAVOK 11/03 Q1010 RMK WIND 1800FT 04005KT=

TAF

ENNA 171100Z 1712/1812 23008KT 9999 FEW035 BKN045 BECMG 1714/1716 35010KT TEMPO 1721/1806 BKN014=

ENKR (16:20 UTC)

Kirkenes Airport, Høybuktmoen

METAR

ENKR 171620Z 26009KT 9999 FEW035 BKN050 14/02 Q1009 RMK WIND 731FT 26016KT=

TAF

ENKR 171400Z 1715/1724 24009KT 9999 BKN050=

ENLK (16:20 UTC)

Leknes Airport

METAR

ENLK 171620Z 13008KT 110V160 9999 FEW005 BKN088 12/10 Q1011=

TAF

Ingen TAF hittades.

ENNO (16:20 UTC)

Notodden Airport, Tuven

METAR

ENNO 171620Z 11005KT CAVOK 21/12 Q1012=

TAF

SHRACB

ENNO 171100Z 1712/1717 12008KT 9999 FEW040 SCT070 PROB40 1716/1717 SHRA SCT025CB BKN030=

ENST (16:20 UTC)

Sandnessjøen Airport, Stokka

METAR

SHRA

ENST 171620Z 20004KT 9999 VCSH FEW007 SCT012 BKN025 13/12 Q1012 RMK WIND 300FT 17003KT=

TAF

Ingen TAF hittades.

ENSB (16:20 UTC)

Svalbard Airport, Longyear

METAR

ENSB 171620Z 27007KT 240V300 9999 FEW020 SCT038 05/M01 Q1003 RMK WIND 1400FT 27006KT=

TAF

ENSB 171100Z 1712/1812 25009KT 9999 FEW030 BKN050=

ENSK (16:20 UTC)

Stokmarknes Airport, Skagen

METAR

SHRA

ENSK 171620Z 13005KT 9999 VCSH FEW015 SCT034 BKN057 12/11 Q1011=

TAF

Ingen TAF hittades.

ENSR (16:20 UTC)

Sørkjosen Airport

METAR

SHRA

ENSR 171620Z 33005KT 9999 VCSH FEW040 BKN050 09/05 Q1010 RMK WIND 1119FT 18002KT=

TAF

Ingen TAF hittades.

ENNM (16:20 UTC)

Namsos Airport, Høknesøra

METAR

ENNM 171620Z 31005KT 9999 FEW022 BKN090 16/12 Q1012=

TAF

Ingen TAF hittades.